Time;durP1;ratioP1;P1;durP2;ratioP2;P2;SDS_P1;SDS_P2;PMS_P1;PMS_P2;Temp;Humidity;BMP_temperature;BMP_pressure;BME280_temperature;BME280_humidity;BME280_pressure;Samples;Min_cycle;Max_cycle;Signal;HPM_P1;HPM_P2
2021/05/02 00:00:44;;;;;;;13.23;8.60;;;6.60;94.10;;;;;;5084945;28;20048;-84
2021/05/02 00:03:10;;;;;;;11.70;7.70;;;6.60;94.20;;;;;;5085432;28;20039;-83
2021/05/02 00:05:37;;;;;;;10.20;7.83;;;6.60;94.30;;;;;;5082096;28;20043;-83
2021/05/02 00:08:04;;;;;;;8.07;6.57;;;6.50;94.50;;;;;;5065439;28;20070;-84
2021/05/02 00:10:32;;;;;;;10.23;7.67;;;6.50;94.30;;;;;;5084288;28;20050;-84
2021/05/02 00:13:00;;;;;;;13.37;8.33;;;6.50;94.40;;;;;;5068560;28;20042;-83
2021/05/02 00:15:29;;;;;;;11.88;8.10;;;6.50;94.50;;;;;;5066483;28;20040;-83
2021/05/02 00:17:56;;;;;;;8.25;5.80;;;6.50;94.50;;;;;;5082814;28;20044;-83
2021/05/02 00:20:26;;;;;;;7.43;6.13;;;6.50;94.50;;;;;;5027117;28;20056;-83
2021/05/02 00:22:55;;;;;;;9.33;6.03;;;6.40;94.40;;;;;;5026770;28;20041;-83
2021/05/02 00:25:25;;;;;;;7.03;5.60;;;6.40;94.50;;;;;;5025950;28;20040;-83
2021/05/02 00:27:52;;;;;;;7.90;5.83;;;6.40;94.60;;;;;;5024614;28;20036;-83
2021/05/02 00:30:21;;;;;;;6.57;5.20;;;6.30;94.60;;;;;;5010166;28;20048;-83
2021/05/02 00:32:51;;;;;;;7.63;4.33;;;6.20;94.70;;;;;;5029249;28;20044;-83
2021/05/02 00:35:20;;;;;;;8.17;4.53;;;6.20;94.70;;;;;;5024314;28;20490;-83
2021/05/02 00:37:47;;;;;;;11.57;4.97;;;6.10;94.70;;;;;;5026364;28;20052;-83
2021/05/02 00:40:17;;;;;;;7.97;4.60;;;6.10;94.70;;;;;;5000724;28;20045;-83
2021/05/02 00:42:48;;;;;;;5.20;3.65;;;6.00;94.80;;;;;;4994618;28;20033;-83
2021/05/02 00:45:29;;;;;;;8.47;5.03;;;6.00;94.80;;;;;;5024781;28;20048;-83
2021/05/02 00:48:16;;;;;;;6.47;4.63;;;6.10;95.00;;;;;;5026033;28;20055;-83
2021/05/02 00:50:54;;;;;;;9.60;5.50;;;6.20;94.90;;;;;;5032528;28;21074;-83
2021/05/02 00:53:33;;;;;;;9.33;5.43;;;6.30;94.90;;;;;;5067254;28;20040;-83
2021/05/02 00:56:14;;;;;;;6.97;4.40;;;6.40;94.90;;;;;;5099617;28;20055;-82
2021/05/02 00:59:01;;;;;;;8.13;4.03;;;6.40;94.80;;;;;;5083409;28;20035;-83
2021/05/02 01:01:42;;;;;;;8.10;5.20;;;6.50;94.70;;;;;;5083655;28;20052;-84
2021/05/02 01:04:30;;;;;;;9.48;5.65;;;6.60;94.60;;;;;;5073432;28;20043;-83
2021/05/02 01:07:02;;;;;;;6.78;5.15;;;6.70;94.70;;;;;;5067505;28;20043;-84
2021/05/02 01:09:30;;;;;;;9.67;4.60;;;6.70;94.60;;;;;;5084028;28;20043;-84
2021/05/02 01:12:00;;;;;;;8.13;4.50;;;6.70;94.60;;;;;;5086507;28;20506;-84
2021/05/02 01:14:30;;;;;;;5.38;3.70;;;6.70;94.50;;;;;;5084710;28;20046;-83
2021/05/02 01:16:58;;;;;;;4.43;3.30;;;6.80;94.40;;;;;;5087137;28;20031;-84
2021/05/02 01:19:28;;;;;;;8.83;4.03;;;6.80;94.30;;;;;;5087123;28;20042;-83
2021/05/02 01:21:58;;;;;;;8.30;3.97;;;6.90;94.30;;;;;;5087403;28;20398;-84
2021/05/02 01:24:26;;;;;;;8.47;3.63;;;6.90;94.20;;;;;;5087129;28;20478;-84
2021/05/02 01:26:53;;;;;;;9.05;4.15;;;6.90;94.10;;;;;;5070266;28;20024;-84
2021/05/02 01:29:20;;;;;;;6.10;3.67;;;6.90;94.10;;;;;;5086018;28;20047;-84
2021/05/02 01:31:46;;;;;;;6.37;3.47;;;6.90;94.00;;;;;;5070583;28;20501;-84
2021/05/02 01:34:13;;;;;;;4.53;3.20;;;6.90;93.90;;;;;;5070398;28;20040;-85
2021/05/02 01:36:39;;;;;;;8.27;3.70;;;6.90;93.90;;;;;;5069177;28;20497;-83
2021/05/02 01:39:08;;;;;;;6.30;4.00;;;6.90;93.80;;;;;;5050453;28;20396;-83
2021/05/02 01:41:36;;;;;;;6.20;3.63;;;6.90;93.80;;;;;;5070216;28;20050;-84
2021/05/02 01:44:03;;;;;;;11.27;4.57;;;7.00;93.80;;;;;;5070936;28;20036;-84
2021/05/02 01:46:41;;;;;;;10.07;5.07;;;6.90;93.80;;;;;;5086846;28;20059;-84
2021/05/02 01:49:10;;;;;;;6.53;4.27;;;7.00;93.80;;;;;;5070167;28;20036;-83
2021/05/02 01:51:38;;;;;;;9.20;4.35;;;7.00;93.80;;;;;;5070256;28;20056;-84
2021/05/02 01:54:06;;;;;;;11.90;4.50;;;6.90;93.80;;;;;;5087219;28;20110;-84
2021/05/02 01:56:34;;;;;;;7.57;4.10;;;7.00;93.80;;;;;;5069113;28;20047;-84
2021/05/02 01:59:02;;;;;;;8.50;5.77;;;7.00;93.80;;;;;;5069674;28;20035;-84
2021/05/02 02:01:35;;;;;;;9.87;5.33;;;7.00;93.80;;;;;;5104971;28;20058;-84
2021/05/02 02:04:05;;;;;;;12.97;4.70;;;7.00;93.80;;;;;;5104395;28;20040;-83
2021/05/02 02:06:33;;;;;;;7.50;4.60;;;7.00;93.80;;;;;;5103891;28;20035;-84
2021/05/02 02:09:07;;;;;;;8.00;3.95;;;7.00;93.70;;;;;;5069251;28;20036;-84
2021/05/02 02:11:34;;;;;;;7.37;4.30;;;6.90;93.70;;;;;;5055101;28;20046;-83
2021/05/02 02:14:13;;;;;;;6.53;3.17;;;6.90;93.70;;;;;;5089802;28;20040;-84
2021/05/02 02:16:43;;;;;;;7.00;3.28;;;6.90;93.70;;;;;;5037086;28;20049;-84
2021/05/02 02:19:09;;;;;;;9.00;3.50;;;6.80;93.70;;;;;;5083798;28;20060;-83
2021/05/02 02:21:37;;;;;;;6.13;2.83;;;6.70;93.90;;;;;;5051610;28;20410;-84
2021/05/02 02:24:04;;;;;;;4.50;2.13;;;6.60;93.60;;;;;;5071892;28;20398;-84
2021/05/02 02:26:48;;;;;;;6.37;2.27;;;6.50;93.80;;;;;;5071213;28;20045;-83
2021/05/02 02:29:15;;;;;;;4.38;1.40;;;6.40;93.50;;;;;;5084662;28;20047;-83
2021/05/02 02:31:44;;;;;;;4.40;2.10;;;6.30;93.60;;;;;;5104788;28;20465;-83
2021/05/02 02:34:14;;;;;;;6.03;2.33;;;6.20;93.60;;;;;;5100991;28;20044;-83
2021/05/02 02:36:41;;;;;;;6.70;2.80;;;6.10;93.70;;;;;;5070528;28;20039;-84
2021/05/02 02:39:09;;;;;;;6.13;2.83;;;6.00;93.80;;;;;;5070716;28;20490;-83
2021/05/02 02:41:42;;;;;;;6.93;2.78;;;5.90;93.90;;;;;;5071801;28;20046;-83
2021/05/02 02:44:10;;;;;;;5.40;2.30;;;5.80;94.00;;;;;;5076411;28;20027;-83
2021/05/02 02:46:41;;;;;;;8.17;2.93;;;5.80;94.10;;;;;;5055079;28;20039;-83
2021/05/02 02:49:10;;;;;;;4.05;2.30;;;5.80;94.30;;;;;;5086441;28;20032;-83
2021/05/02 02:51:39;;;;;;;5.77;2.40;;;5.80;94.30;;;;;;5070527;28;20489;-83
2021/05/02 02:54:09;;;;;;;4.97;2.33;;;5.80;94.20;;;;;;5084622;28;20505;-83
2021/05/02 02:56:40;;;;;;;7.07;2.13;;;5.90;94.20;;;;;;5068221;28;20035;-84
2021/05/02 02:59:17;;;;;;;5.13;2.30;;;5.90;94.20;;;;;;5083849;28;20043;-84
2021/05/02 03:01:47;;;;;;;5.13;2.57;;;5.90;94.10;;;;;;5086259;28;20043;-85
2021/05/02 03:04:17;;;;;;;5.37;2.43;;;6.00;94.20;;;;;;5086468;28;20036;-83
2021/05/02 03:06:45;;;;;;;5.93;2.93;;;6.00;94.20;;;;;;5102645;28;20043;-82
2021/05/02 03:09:16;;;;;;;9.10;2.60;;;6.00;94.20;;;;;;5084900;28;20059;-83
2021/05/02 03:11:43;;;;;;;7.43;2.53;;;6.00;94.20;;;;;;5068654;28;20040;-83
2021/05/02 03:14:13;;;;;;;6.10;3.30;;;6.10;94.20;;;;;;5085145;28;20047;-85
2021/05/02 03:16:43;;;;;;;4.33;2.60;;;6.10;94.20;;;;;;5099448;28;20028;-85
2021/05/02 03:19:23;;;;;;;7.23;3.37;;;6.10;94.20;;;;;;5070157;28;20043;-84
2021/05/02 03:22:16;;;;;;;6.87;3.50;;;6.10;94.30;;;;;;5073147;28;20394;-84
2021/05/02 03:24:45;;;;;;;6.73;3.33;;;6.10;94.30;;;;;;5069034;28;20043;-81
2021/05/02 03:27:35;;;;;;;8.27;2.77;;;6.10;94.30;;;;;;5105610;28;20027;-83
2021/05/02 03:30:07;;;;;;;11.77;3.90;;;6.10;94.40;;;;;;5083452;28;20028;-82
2021/05/02 03:32:36;;;;;;;10.43;3.72;;;6.10;94.40;;;;;;5085593;28;20047;-84
2021/05/02 03:35:06;;;;;;;7.10;3.77;;;6.20;94.40;;;;;;5066603;28;20043;-85
2021/05/02 03:37:35;;;;;;;9.80;3.40;;;6.10;94.40;;;;;;5103871;28;20047;-83
2021/05/02 03:40:04;;;;;;;8.60;3.10;;;6.20;94.50;;;;;;5070395;28;20051;-86
2021/05/02 03:42:33;;;;;;;8.33;4.27;;;6.20;94.50;;;;;;5069612;28;20038;-84
2021/05/02 03:45:00;;;;;;;7.43;3.33;;;6.20;94.50;;;;;;5085544;28;20048;-81
2021/05/02 03:47:26;;;;;;;9.00;4.27;;;6.10;94.50;;;;;;5054822;28;20109;-84
2021/05/02 03:49:53;;;;;;;8.60;3.80;;;6.00;94.60;;;;;;5070724;28;20374;-84
2021/05/02 03:52:20;;;;;;;7.87;3.53;;;6.00;94.70;;;;;;5069767;28;20501;-83
2021/05/02 03:54:53;;;;;;;7.43;2.67;;;5.90;94.80;;;;;;5070551;28;20063;-83
2021/05/02 03:57:20;;;;;;;8.83;3.37;;;5.80;94.80;;;;;;5071363;28;20770;-82
2021/05/02 03:59:47;;;;;;;7.40;3.10;;;5.70;94.90;;;;;;5085628;28;20032;-83
2021/05/02 04:02:14;;;;;;;5.23;2.53;;;5.60;95.00;;;;;;5078704;28;20036;-83
2021/05/02 04:04:42;;;;;;;10.27;3.30;;;5.60;95.10;;;;;;5084196;28;20402;-83
2021/05/02 04:07:11;;;;;;;5.33;2.80;;;5.50;95.20;;;;;;5071441;28;20366;-82
2021/05/02 04:09:38;;;;;;;5.33;3.20;;;5.50;95.30;;;;;;5064654;28;20043;-83
2021/05/02 04:12:06;;;;;;;8.87;3.27;;;5.50;95.40;;;;;;5085187;28;20434;-83
2021/05/02 04:14:33;;;;;;;6.70;2.73;;;5.50;95.50;;;;;;5082933;28;20054;-83
2021/05/02 04:17:02;;;;;;;6.40;2.57;;;5.50;95.50;;;;;;5057552;28;20044;-83
2021/05/02 04:19:30;;;;;;;7.87;2.50;;;5.40;95.50;;;;;;5085394;28;20394;-82
2021/05/02 04:21:57;;;;;;;7.10;3.00;;;5.50;95.90;;;;;;5054948;28;20043;-83
2021/05/02 04:24:24;;;;;;;6.20;2.63;;;5.50;95.90;;;;;;5068871;28;20509;-83
2021/05/02 04:26:52;;;;;;;6.57;2.70;;;5.40;95.60;;;;;;5105883;28;20039;-83
2021/05/02 04:29:23;;;;;;;10.00;2.60;;;5.40;95.70;;;;;;5067076;28;20043;-83
2021/05/02 04:31:50;;;;;;;7.07;2.57;;;5.40;95.80;;;;;;5086252;28;20047;-83
2021/05/02 04:34:19;;;;;;;8.93;2.83;;;5.40;95.80;;;;;;5035266;28;20047;-83
2021/05/02 04:36:46;;;;;;;12.50;3.37;;;5.40;95.90;;;;;;5083972;28;20036;-83
2021/05/02 04:39:13;;;;;;;9.53;3.00;;;5.40;96.00;;;;;;5086619;28;20052;-83
2021/05/02 04:41:40;;;;;;;6.30;2.20;;;5.40;96.00;;;;;;5086675;28;20040;-82
2021/05/02 04:44:06;;;;;;;6.47;2.33;;;5.40;96.00;;;;;;5073001;28;20393;-82
2021/05/02 04:46:33;;;;;;;5.07;3.00;;;5.40;96.00;;;;;;5090004;28;20055;-80
2021/05/02 04:49:00;;;;;;;6.10;2.77;;;5.40;96.00;;;;;;5088120;28;20031;-82
2021/05/02 04:51:27;;;;;;;6.03;2.50;;;5.40;96.00;;;;;;5090032;28;20410;-83
2021/05/02 04:53:54;;;;;;;5.40;3.17;;;5.30;96.10;;;;;;5093197;28;20398;-83
2021/05/02 04:56:20;;;;;;;7.27;2.97;;;5.30;96.10;;;;;;5069614;28;20048;-83
2021/05/02 04:58:47;;;;;;;11.83;4.13;;;5.30;96.20;;;;;;5057473;28;20058;-82
2021/05/02 05:01:14;;;;;;;7.27;3.30;;;5.30;96.30;;;;;;5074767;28;20047;-83
2021/05/02 05:03:42;;;;;;;9.73;2.73;;;5.40;96.30;;;;;;5056599;28;20036;-83
2021/05/02 05:06:08;;;;;;;6.63;3.10;;;5.50;96.30;;;;;;5090487;28;20054;-83
2021/05/02 05:08:35;;;;;;;11.00;3.13;;;5.70;96.20;;;;;;5090398;28;20050;-83
2021/05/02 05:11:01;;;;;;;6.97;3.60;;;5.70;96.10;;;;;;5057626;28;20050;-83
2021/05/02 05:13:28;;;;;;;7.00;2.97;;;5.80;96.00;;;;;;5089389;28;20036;-83
2021/05/02 05:15:59;;;;;;;5.60;1.83;;;5.90;96.00;;;;;;5073762;28;20047;-83
2021/05/02 05:18:25;;;;;;;5.43;2.70;;;6.00;95.90;;;;;;5072030;28;20043;-83
2021/05/02 05:20:54;;;;;;;7.27;2.63;;;6.10;95.70;;;;;;5071491;28;21263;-84
2021/05/02 05:23:20;;;;;;;9.90;2.70;;;6.20;95.60;;;;;;5105931;28;20402;-83
2021/05/02 05:25:48;;;;;;;4.87;2.40;;;6.30;95.40;;;;;;5073445;28;20036;-83
2021/05/02 05:28:14;;;;;;;8.07;2.37;;;6.30;95.20;;;;;;5072559;28;20040;-83
2021/05/02 05:30:42;;;;;;;7.70;2.80;;;6.40;95.10;;;;;;5072946;28;20044;-83
2021/05/02 05:33:09;;;;;;;10.07;2.90;;;6.30;95.10;;;;;;5039884;28;20044;-83
2021/05/02 05:35:38;;;;;;;5.60;2.33;;;6.30;95.00;;;;;;5104324;28;20486;-83
2021/05/02 05:38:05;;;;;;;10.10;2.57;;;6.50;95.00;;;;;;5072232;28;20047;-82
2021/05/02 05:40:32;;;;;;;9.00;2.67;;;6.60;94.90;;;;;;5070833;28;20054;-83
2021/05/02 05:43:02;;;;;;;6.17;2.77;;;6.70;94.80;;;;;;5074132;28;20040;-82
2021/05/02 05:45:30;;;;;;;7.53;2.77;;;6.80;94.60;;;;;;5073729;28;20032;-83
2021/05/02 05:47:58;;;;;;;10.15;3.10;;;7.00;94.40;;;;;;5078064;28;20047;-82
2021/05/02 05:50:26;;;;;;;7.03;2.60;;;7.10;94.20;;;;;;5090108;28;20032;-82
2021/05/02 05:52:53;;;;;;;6.53;2.63;;;7.20;94.00;;;;;;5079513;28;20426;-83
2021/05/02 05:55:21;;;;;;;6.18;2.45;;;7.40;93.90;;;;;;5070889;28;20036;-82
2021/05/02 05:57:49;;;;;;;5.95;2.03;;;7.50;93.60;;;;;;5088766;28;20486;-83
2021/05/02 06:00:17;;;;;;;9.57;2.20;;;7.60;93.50;;;;;;5078499;28;20402;-82
2021/05/02 06:02:44;;;;;;;7.43;1.77;;;7.80;93.30;;;;;;5072903;28;20038;-83
2021/05/02 06:05:11;;;;;;;8.65;1.80;;;7.90;93.00;;;;;;5104445;28;20047;-84
2021/05/02 06:07:38;;;;;;;5.80;2.15;;;8.00;92.80;;;;;;5089085;28;20051;-83
2021/05/02 06:10:06;;;;;;;8.05;1.95;;;8.10;92.70;;;;;;5086275;28;20497;-83
2021/05/02 06:12:33;;;;;;;5.63;1.73;;;8.20;92.50;;;;;;5090677;28;20046;-83
2021/05/02 06:15:01;;;;;;;8.65;2.17;;;8.40;92.30;;;;;;5087208;28;20043;-83
2021/05/02 06:17:28;;;;;;;5.78;1.55;;;8.50;92.10;;;;;;5090129;28;20056;-83
2021/05/02 06:19:55;;;;;;;4.57;1.15;;;8.60;91.80;;;;;;5069003;28;20038;-83
2021/05/02 06:22:21;;;;;;;5.97;1.55;;;8.80;91.70;;;;;;5066076;28;20031;-82
2021/05/02 06:24:48;;;;;;;5.05;1.00;;;9.00;91.50;;;;;;5072045;28;20047;-83
2021/05/02 06:27:15;;;;;;;6.22;1.10;;;9.20;91.30;;;;;;5089834;28;20032;-83
2021/05/02 06:29:42;;;;;;;9.27;1.40;;;9.50;91.00;;;;;;5105164;28;20035;-83
2021/05/02 06:32:08;;;;;;;7.63;1.23;;;9.70;90.10;;;;;;5089266;28;20052;-83
2021/05/02 06:34:35;;;;;;;9.98;1.30;;;9.90;88.90;;;;;;5089196;28;20035;-83
2021/05/02 06:37:01;;;;;;;5.32;1.17;;;10.00;88.40;;;;;;5089133;28;20028;-83
2021/05/02 06:39:28;;;;;;;5.22;1.33;;;10.10;87.10;;;;;;5061828;28;20048;-83
2021/05/02 06:41:55;;;;;;;8.77;0.90;;;10.30;86.50;;;;;;5106861;28;20402;-83
2021/05/02 06:44:22;;;;;;;4.60;0.77;;;10.50;85.70;;;;;;5067094;28;20028;-83
2021/05/02 06:46:49;;;;;;;4.22;0.82;;;10.70;84.00;;;;;;5107604;28;20047;-83
2021/05/02 06:49:16;;;;;;;2.85;0.70;;;10.80;82.60;;;;;;5053950;28;20047;-83
2021/05/02 06:51:44;;;;;;;2.53;0.80;;;10.90;81.30;;;;;;5104402;28;20054;-83
2021/05/02 06:54:10;;;;;;;4.63;1.15;;;10.90;80.50;;;;;;5088359;28;20047;-83
2021/05/02 06:56:37;;;;;;;4.57;0.80;;;10.90;80.20;;;;;;5069814;28;20090;-82
2021/05/02 06:59:04;;;;;;;3.17;1.10;;;10.90;80.50;;;;;;5068791;28;20039;-82
2021/05/02 07:01:31;;;;;;;3.58;0.90;;;11.10;80.20;;;;;;5087142;28;20044;-82
2021/05/02 07:03:58;;;;;;;6.07;1.10;;;11.20;78.70;;;;;;5082452;28;20036;-81
2021/05/02 07:06:26;;;;;;;5.80;1.80;;;11.20;76.30;;;;;;5086191;28;20517;-82
2021/05/02 07:08:53;;;;;;;4.30;0.60;;;11.20;76.90;;;;;;5070557;28;20035;-82
2021/05/02 07:11:21;;;;;;;8.00;0.90;;;11.20;76.90;;;;;;5086681;28;20051;-82
2021/05/02 07:13:48;;;;;;;6.03;0.57;;;11.00;76.20;;;;;;5083633;28;20043;-81
2021/05/02 07:16:17;;;;;;;5.85;0.80;;;11.10;76.90;;;;;;5073466;28;20050;-82
2021/05/02 07:18:44;;;;;;;4.50;0.60;;;11.20;76.60;;;;;;5106146;28;20071;-87
2021/05/02 07:21:11;;;;;;;4.47;1.10;;;11.30;76.60;;;;;;5073640;28;20036;-88
2021/05/02 07:23:39;;;;;;;5.55;0.82;;;11.60;75.90;;;;;;5071175;28;20039;-89
2021/05/02 07:26:06;;;;;;;4.68;0.50;;;11.60;74.70;;;;;;5071710;28;20374;-89
2021/05/02 07:28:33;;;;;;;2.15;0.50;;;11.80;75.20;;;;;;5069924;28;20520;-89
2021/05/02 07:31:00;;;;;;;5.10;0.80;;;12.00;75.20;;;;;;5081637;28;20040;-88
2021/05/02 07:33:27;;;;;;;3.95;0.50;;;12.30;74.80;;;;;;5039364;28;20027;-88
2021/05/02 07:35:56;;;;;;;3.28;0.60;;;12.40;73.50;;;;;;5070461;28;20044;-89
2021/05/02 07:38:24;;;;;;;4.07;0.60;;;12.50;73.10;;;;;;5068494;28;20054;-89
2021/05/02 07:40:51;;;;;;;4.13;0.68;;;12.70;72.00;;;;;;5071820;28;20509;-88
2021/05/02 07:43:18;;;;;;;3.80;0.50;;;12.80;70.30;;;;;;5087253;28;20052;-83
2021/05/02 07:45:44;;;;;;;1.70;0.40;;;12.90;68.30;;;;;;5102530;28;20044;-82
2021/05/02 07:48:11;;;;;;;3.20;0.73;;;12.80;67.30;;;;;;5102088;28;20039;-82
2021/05/02 07:50:38;;;;;;;8.32;0.50;;;12.70;66.80;;;;;;5087339;28;20066;-81
2021/05/02 07:53:05;;;;;;;3.88;0.70;;;12.70;66.90;;;;;;5071673;28;20040;-81
2021/05/02 07:55:32;;;;;;;3.00;0.70;;;12.70;65.90;;;;;;5070644;28;20406;-81
2021/05/02 07:57:59;;;;;;;2.10;0.52;;;12.90;65.00;;;;;;5106116;28;20410;-81
2021/05/02 08:00:26;;;;;;;1.67;0.40;;;13.00;64.70;;;;;;5068646;28;20483;-82
2021/05/02 08:02:53;;;;;;;2.22;0.60;;;13.10;63.10;;;;;;5107105;28;20059;-81
2021/05/02 08:05:20;;;;;;;5.18;0.68;;;13.30;62.80;;;;;;5070515;28;20817;-81
2021/05/02 08:07:46;;;;;;;4.10;0.45;;;13.40;62.40;;;;;;5087691;28;20398;-81
2021/05/02 08:10:13;;;;;;;1.95;0.40;;;13.50;61.90;;;;;;5068663;28;20080;-81
2021/05/02 08:12:40;;;;;;;1.35;0.40;;;13.40;61.80;;;;;;5088115;28;20039;-81
2021/05/02 08:15:08;;;;;;;3.03;0.63;;;12.90;61.80;;;;;;5083357;28;20398;-82
2021/05/02 08:17:36;;;;;;;2.63;0.40;;;12.40;62.30;;;;;;5088606;28;20390;-80
2021/05/02 08:20:05;;;;;;;2.40;0.35;;;12.20;63.70;;;;;;5074002;28;20036;-80
2021/05/02 08:22:32;;;;;;;4.32;0.47;;;12.20;63.40;;;;;;5091624;28;20050;-81
2021/05/02 08:24:58;;;;;;;3.30;0.30;;;12.50;63.10;;;;;;5090205;28;20371;-82
2021/05/02 08:27:25;;;;;;;3.95;0.40;;;12.80;62.20;;;;;;5107270;28;20042;-81
2021/05/02 08:29:52;;;;;;;3.22;0.50;;;13.10;61.90;;;;;;5052932;28;20044;-83
2021/05/02 08:32:18;;;;;;;2.65;0.50;;;13.20;60.60;;;;;;5103014;28;20052;-84
2021/05/02 08:34:45;;;;;;;1.45;0.40;;;13.00;60.40;;;;;;5054695;28;21162;-85
2021/05/02 08:37:11;;;;;;;1.70;0.40;;;12.80;60.90;;;;;;5057007;28;20044;-83
2021/05/02 08:39:41;;;;;;;3.70;0.30;;;12.80;61.60;;;;;;5053897;28;20035;-82
2021/05/02 08:42:07;;;;;;;1.70;0.40;;;12.90;62.00;;;;;;5074884;28;20051;-82
2021/05/02 08:44:34;;;;;;;3.40;0.40;;;12.90;60.70;;;;;;5072813;28;20043;-84
2021/05/02 08:47:05;;;;;;;3.65;0.40;;;12.80;60.30;;;;;;5088365;28;20040;-84
2021/05/02 08:49:32;;;;;;;3.50;0.40;;;12.50;60.90;;;;;;5085692;28;20035;-84
2021/05/02 08:52:01;;;;;;;3.97;0.30;;;12.30;60.80;;;;;;5071295;28;20052;-84
2021/05/02 08:54:28;;;;;;;2.25;0.32;;;12.30;61.10;;;;;;5088412;28;20074;-84
2021/05/02 08:56:56;;;;;;;1.85;0.40;;;12.40;61.10;;;;;;5068578;28;20039;-85
2021/05/02 08:59:23;;;;;;;4.15;0.30;;;12.60;60.00;;;;;;5068441;28;20482;-85
2021/05/02 09:01:50;;;;;;;2.42;0.40;;;12.90;58.40;;;;;;5071656;28;20055;-84
2021/05/02 09:04:18;;;;;;;3.03;0.40;;;13.30;58.10;;;;;;5082139;28;20051;-84
2021/05/02 09:06:47;;;;;;;1.30;0.38;;;13.50;57.60;;;;;;5086367;28;20498;-84
2021/05/02 09:09:13;;;;;;;1.00;0.40;;;13.80;56.60;;;;;;5085531;28;20521;-77
2021/05/02 09:11:45;;;;;;;2.75;0.50;;;13.90;56.20;;;;;;5105285;28;20052;-76
2021/05/02 09:14:19;;;;;;;1.85;0.55;;;13.70;56.40;;;;;;5103547;28;20497;-78
2021/05/02 09:16:58;;;;;;;1.83;0.30;;;13.40;57.30;;;;;;5087090;28;20031;-79
2021/05/02 09:19:32;;;;;;;1.35;0.25;;;13.30;57.60;;;;;;5082288;28;20043;-79
2021/05/02 09:22:11;;;;;;;0.73;0.30;;;13.40;57.40;;;;;;5055734;28;20043;-79
2021/05/02 09:24:39;;;;;;;0.70;0.30;;;13.70;56.00;;;;;;5082703;28;20580;-78
2021/05/02 09:27:14;;;;;;;3.15;0.40;;;14.00;54.40;;;;;;5099167;28;20044;-86
2021/05/02 09:29:52;;;;;;;3.20;0.70;;;14.10;54.20;;;;;;5096582;28;20482;-86
2021/05/02 09:32:37;;;;;;;3.33;0.47;;;14.00;54.00;;;;;;5068015;28;20043;-87
2021/05/02 09:35:07;;;;;;;2.70;0.60;;;13.90;52.70;;;;;;5098865;28;20039;-87
2021/05/02 09:37:34;;;;;;;3.45;0.40;;;13.80;52.80;;;;;;5069851;28;20039;-85
2021/05/02 09:40:02;;;;;;;1.95;0.30;;;13.90;52.00;;;;;;5087189;28;20031;-87
2021/05/02 09:42:38;;;;;;;1.17;0.30;;;13.90;51.70;;;;;;5055037;28;20039;-85
2021/05/02 09:45:10;;;;;;;2.60;0.45;;;14.00;52.20;;;;;;5102027;28;20517;-87
2021/05/02 09:47:41;;;;;;;1.58;0.30;;;14.10;51.70;;;;;;5103719;28;20039;-88
2021/05/02 09:50:13;;;;;;;2.72;0.30;;;14.10;52.30;;;;;;5082131;28;20055;-88
2021/05/02 09:53:01;;;;;;;2.78;0.30;;;14.30;52.20;;;;;;5069623;28;20494;-86
2021/05/02 09:55:32;;;;;;;0.80;0.20;;;14.20;51.50;;;;;;5098191;28;20034;-87
2021/05/02 09:58:20;;;;;;;2.03;0.35;;;14.10;52.00;;;;;;5088268;28;20031;-87
2021/05/02 10:00:50;;;;;;;2.40;0.40;;;14.10;51.90;;;;;;5088652;28;20497;-87
2021/05/02 10:03:18;;;;;;;0.63;0.30;;;14.00;51.90;;;;;;5083883;28;20039;-88
2021/05/02 10:05:58;;;;;;;3.58;0.40;;;13.80;53.00;;;;;;5065303;28;20039;-85
2021/05/02 10:08:26;;;;;;;2.00;0.50;;;13.60;53.90;;;;;;5094249;28;20043;-88
2021/05/02 10:10:54;;;;;;;1.38;0.30;;;13.40;53.90;;;;;;5080869;28;20039;-85
2021/05/02 10:13:21;;;;;;;1.50;0.30;;;13.20;54.30;;;;;;5085511;28;20430;-83
2021/05/02 10:15:48;;;;;;;3.90;0.60;;;13.10;54.80;;;;;;5100373;28;20031;-84
2021/05/02 10:18:15;;;;;;;1.80;0.30;;;12.90;55.10;;;;;;5068436;28;20032;-85
2021/05/02 10:20:46;;;;;;;2.80;0.40;;;12.80;55.50;;;;;;5085201;28;20036;-87
2021/05/02 10:23:14;;;;;;;1.95;0.30;;;12.60;56.10;;;;;;5070362;28;20044;-83
2021/05/02 10:25:42;;;;;;;1.02;0.20;;;12.50;56.70;;;;;;5102939;28;20047;-83
2021/05/02 10:28:14;;;;;;;1.80;0.40;;;12.50;57.20;;;;;;5082017;28;20043;-83
2021/05/02 10:30:44;;;;;;;1.45;0.43;;;12.60;57.50;;;;;;5097862;28;20039;-82
2021/05/02 10:33:14;;;;;;;1.95;0.50;;;12.70;57.30;;;;;;5103116;28;20048;-84
2021/05/02 10:35:45;;;;;;;1.70;0.40;;;12.70;56.70;;;;;;5083037;28;20031;-85
2021/05/02 10:38:15;;;;;;;2.17;0.40;;;12.80;57.80;;;;;;5079722;28;20036;-86
2021/05/02 10:40:41;;;;;;;2.47;0.30;;;13.30;57.10;;;;;;5084383;28;20292;-87
2021/05/02 10:43:10;;;;;;;0.82;0.30;;;13.80;55.10;;;;;;5053019;28;20046;-85
2021/05/02 10:45:42;;;;;;;1.77;0.20;;;14.20;53.60;;;;;;5081412;28;20044;-85
2021/05/02 10:48:14;;;;;;;1.77;0.20;;;14.70;53.10;;;;;;5082087;28;20047;-84
2021/05/02 10:50:42;;;;;;;;;;;15.20;52.10;;;;;;5101533;28;20443;-83
2021/05/02 10:53:14;;;;;;;1.42;0.30;;;15.60;51.50;;;;;;5102674;28;19923;-83
2021/05/02 10:55:51;;;;;;;1.00;0.20;;;15.90;50.70;;;;;;5100336;28;20036;-82
2021/05/02 10:58:18;;;;;;;0.70;0.20;;;16.30;48.90;;;;;;5100928;28;20095;-84
2021/05/02 11:00:50;;;;;;;0.98;0.25;;;16.70;48.40;;;;;;5103800;28;20039;-82
2021/05/02 11:03:35;;;;;;;0.75;0.30;;;17.10;46.90;;;;;;5099654;28;20059;-83
2021/05/02 11:06:05;;;;;;;0.80;0.30;;;17.30;45.40;;;;;;5101462;28;20352;-84
2021/05/02 11:08:57;;;;;;;0.70;0.20;;;17.50;43.70;;;;;;5102096;28;20055;-87
2021/05/02 11:11:30;;;;;;;1.27;0.20;;;17.70;43.90;;;;;;5102979;28;20040;-86
2021/05/02 11:16:36;;;;;;;0.93;0.20;;;18.40;42.50;;;;;;5099936;28;20035;-85
2021/05/02 11:19:04;;;;;;;1.33;0.20;;;18.80;40.80;;;;;;5098007;28;20444;-87
2021/05/02 11:21:49;;;;;;;0.55;0.20;;;18.70;40.30;;;;;;5102980;28;20059;-84
2021/05/02 11:24:17;;;;;;;1.90;0.40;;;18.30;40.10;;;;;;5086170;28;20043;-87
2021/05/02 11:26:47;;;;;;;2.22;0.40;;;17.80;40.40;;;;;;5070283;28;20125;-87
2021/05/02 11:29:17;;;;;;;2.50;0.40;;;17.10;41.10;;;;;;5069813;28;20035;-84
2021/05/02 11:31:44;;;;;;;0.70;0.30;;;16.70;41.60;;;;;;5055120;28;20394;-88
2021/05/02 11:34:11;;;;;;;2.05;0.30;;;16.40;42.80;;;;;;5087111;28;20393;-89
2021/05/02 11:36:42;;;;;;;1.48;0.30;;;16.20;43.50;;;;;;5102739;28;20078;-87
2021/05/02 11:39:31;;;;;;;1.02;0.22;;;16.30;44.30;;;;;;5084102;28;20047;-86
2021/05/02 11:42:04;;;;;;;2.20;0.20;;;16.70;44.50;;;;;;5082632;28;20055;-86
2021/05/02 11:44:33;;;;;;;1.48;0.30;;;17.20;43.00;;;;;;5085989;28;20039;-88
2021/05/02 11:47:11;;;;;;;0.98;0.28;;;17.30;41.30;;;;;;5102209;28;20051;-87
2021/05/02 11:49:39;;;;;;;0.60;0.20;;;17.00;40.20;;;;;;5099122;28;20384;-87
2021/05/02 11:52:06;;;;;;;0.38;0.20;;;16.70;41.10;;;;;;5084445;28;20490;-87
2021/05/02 11:54:33;;;;;;;1.58;0.80;;;16.60;41.80;;;;;;5081716;28;20489;-87
2021/05/02 11:57:00;;;;;;;0.57;0.28;;;16.40;41.90;;;;;;5080394;28;20036;-87
2021/05/02 11:59:27;;;;;;;2.47;0.30;;;16.30;42.60;;;;;;5083767;28;20050;-85
2021/05/02 12:01:54;;;;;;;1.02;0.40;;;16.00;43.30;;;;;;5068325;28;20465;-86
2021/05/02 12:04:24;;;;;;;2.22;0.38;;;15.70;44.00;;;;;;5105905;28;20032;-86
2021/05/02 12:06:58;;;;;;;1.73;0.28;;;15.40;45.00;;;;;;5053877;28;20031;-86
2021/05/02 12:09:29;;;;;;;0.55;0.20;;;15.10;46.00;;;;;;5056371;28;20043;-86
2021/05/02 12:11:57;;;;;;;1.73;0.40;;;15.40;46.40;;;;;;5071788;28;20024;-85
2021/05/02 12:14:28;;;;;;;2.55;0.90;;;16.10;45.60;;;;;;5068368;28;20040;-85
2021/05/02 12:16:57;;;;;;;1.27;0.60;;;16.80;44.60;;;;;;5101551;28;20034;-84
2021/05/02 12:19:30;;;;;;;1.13;0.30;;;17.60;43.10;;;;;;5067485;28;20035;-84
2021/05/02 12:21:57;;;;;;;1.15;0.35;;;18.50;41.00;;;;;;5100345;28;20043;-83
2021/05/02 12:24:28;;;;;;;1.25;0.25;;;19.10;39.90;;;;;;5069104;28;20470;-84
2021/05/02 12:27:00;;;;;;;2.65;0.40;;;19.70;40.10;;;;;;5069860;28;20028;-84
2021/05/02 12:29:32;;;;;;;2.03;0.40;;;20.00;37.20;;;;;;5083974;28;20043;-85
2021/05/02 12:32:00;;;;;;;1.67;0.35;;;19.70;37.30;;;;;;5070409;28;20397;-83
2021/05/02 12:34:29;;;;;;;0.40;0.10;;;20.00;36.80;;;;;;5101441;28;20043;-85
2021/05/02 12:36:58;;;;;;;1.17;0.20;;;20.60;36.30;;;;;;5105670;28;20569;-83
2021/05/02 12:39:36;;;;;;;2.35;0.30;;;21.20;35.10;;;;;;5102690;28;20034;-84
2021/05/02 12:42:04;;;;;;;1.98;0.40;;;22.00;35.20;;;;;;5102899;28;20038;-85
2021/05/02 12:44:31;;;;;;;0.60;0.30;;;22.10;33.30;;;;;;5066871;28;20483;-85
2021/05/02 12:47:00;;;;;;;2.72;0.40;;;21.20;33.10;;;;;;5103459;28;20031;-85
2021/05/02 12:49:33;;;;;;;1.63;0.30;;;20.10;35.00;;;;;;5103651;28;20046;-85
2021/05/02 12:52:12;;;;;;;0.70;0.30;;;19.10;37.00;;;;;;5082805;28;20036;-85
2021/05/02 12:54:38;;;;;;;1.40;0.30;;;18.00;39.00;;;;;;5086749;28;20036;-85
2021/05/02 12:57:06;;;;;;;0.75;0.20;;;17.10;39.90;;;;;;5085976;28;20048;-85
2021/05/02 12:59:43;;;;;;;2.42;0.20;;;16.30;41.40;;;;;;5098205;28;20621;-85
2021/05/02 13:02:25;;;;;;;0.40;0.20;;;15.80;43.00;;;;;;5103881;28;20043;-84
2021/05/02 13:05:12;;;;;;;0.82;0.30;;;15.50;43.50;;;;;;5087153;28;20059;-85